sensor_id;sensor_type;location;lat;lon;timestamp;temperature;humidity
4054;DHT22;2042;47.956;9.222;2022-10-16T00:00:34;10.10;11.20
4054;DHT22;2042;47.956;9.222;2022-10-16T00:03:01;10.10;11.50
4054;DHT22;2042;47.956;9.222;2022-10-16T00:05:27;10.10;11.70
4054;DHT22;2042;47.956;9.222;2022-10-16T00:07:53;10.10;12.00
4054;DHT22;2042;47.956;9.222;2022-10-16T00:10:19;10.10;12.20
4054;DHT22;2042;47.956;9.222;2022-10-16T00:12:44;10.10;12.30
4054;DHT22;2042;47.956;9.222;2022-10-16T00:15:10;10.10;12.40
4054;DHT22;2042;47.956;9.222;2022-10-16T00:17:35;10.10;12.40
4054;DHT22;2042;47.956;9.222;2022-10-16T00:20:01;10.10;13.20
4054;DHT22;2042;47.956;9.222;2022-10-16T00:22:27;10.20;12.90
4054;DHT22;2042;47.956;9.222;2022-10-16T00:24:52;10.20;12.90
4054;DHT22;2042;47.956;9.222;2022-10-16T00:27:18;10.20;13.10
4054;DHT22;2042;47.956;9.222;2022-10-16T00:29:44;10.30;13.30
4054;DHT22;2042;47.956;9.222;2022-10-16T00:32:09;10.30;13.30
4054;DHT22;2042;47.956;9.222;2022-10-16T00:34:35;10.30;13.20
4054;DHT22;2042;47.956;9.222;2022-10-16T00:37:01;10.30;13.10
4054;DHT22;2042;47.956;9.222;2022-10-16T00:39:26;10.30;13.10
4054;DHT22;2042;47.956;9.222;2022-10-16T00:41:52;10.30;13.10
4054;DHT22;2042;47.956;9.222;2022-10-16T00:44:52;10.30;13.10
4054;DHT22;2042;47.956;9.222;2022-10-16T00:47:29;10.30;13.20
4054;DHT22;2042;47.956;9.222;2022-10-16T00:50:00;10.30;13.30
4054;DHT22;2042;47.956;9.222;2022-10-16T00:52:27;10.30;13.30
4054;DHT22;2042;47.956;9.222;2022-10-16T00:54:54;10.30;13.30
4054;DHT22;2042;47.956;9.222;2022-10-16T00:57:20;10.30;13.40
4054;DHT22;2042;47.956;9.222;2022-10-16T00:59:46;10.30;13.20
4054;DHT22;2042;47.956;9.222;2022-10-16T01:02:14;10.30;13.30
4054;DHT22;2042;47.956;9.222;2022-10-16T01:04:45;10.30;13.50
4054;DHT22;2042;47.956;9.222;2022-10-16T01:12:40;10.40;14.00
4054;DHT22;2042;47.956;9.222;2022-10-16T01:17:49;10.50;14.00
4054;DHT22;2042;47.956;9.222;2022-10-16T01:20:37;10.50;14.00
4054;DHT22;2042;47.956;9.222;2022-10-16T01:26:25;10.50;14.10
4054;DHT22;2042;47.956;9.222;2022-10-16T01:29:09;10.50;14.20
4054;DHT22;2042;47.956;9.222;2022-10-16T01:31:40;10.60;14.30
4054;DHT22;2042;47.956;9.222;2022-10-16T01:34:11;10.60;14.50
4054;DHT22;2042;47.956;9.222;2022-10-16T01:36:46;10.60;14.40
4054;DHT22;2042;47.956;9.222;2022-10-16T01:39:14;10.60;14.30
4054;DHT22;2042;47.956;9.222;2022-10-16T01:41:48;10.60;14.30
4054;DHT22;2042;47.956;9.222;2022-10-16T01:44:20;10.60;14.40
4054;DHT22;2042;47.956;9.222;2022-10-16T01:46:50;10.60;14.60
4054;DHT22;2042;47.956;9.222;2022-10-16T01:49:17;10.70;14.80
4054;DHT22;2042;47.956;9.222;2022-10-16T01:51:46;10.70;15.40
4054;DHT22;2042;47.956;9.222;2022-10-16T01:54:16;10.70;14.90
4054;DHT22;2042;47.956;9.222;2022-10-16T01:56:43;10.70;15.00
4054;DHT22;2042;47.956;9.222;2022-10-16T01:59:15;10.80;15.10
4054;DHT22;2042;47.956;9.222;2022-10-16T02:01:45;10.80;15.00
4054;DHT22;2042;47.956;9.222;2022-10-16T02:04:21;10.80;14.90
4054;DHT22;2042;47.956;9.222;2022-10-16T02:06:48;10.80;14.90
4054;DHT22;2042;47.956;9.222;2022-10-16T02:09:13;10.80;14.80
4054;DHT22;2042;47.956;9.222;2022-10-16T02:11:42;10.80;14.60
4054;DHT22;2042;47.956;9.222;2022-10-16T02:14:08;10.70;14.30
4054;DHT22;2042;47.956;9.222;2022-10-16T02:16:45;10.70;14.40
4054;DHT22;2042;47.956;9.222;2022-10-16T02:19:13;10.70;14.40
4054;DHT22;2042;47.956;9.222;2022-10-16T02:21:44;10.70;14.50
4054;DHT22;2042;47.956;9.222;2022-10-16T02:27:00;10.70;14.80
4054;DHT22;2042;47.956;9.222;2022-10-16T02:29:29;10.70;14.70
4054;DHT22;2042;47.956;9.222;2022-10-16T02:32:02;10.70;14.60
4054;DHT22;2042;47.956;9.222;2022-10-16T02:34:32;10.70;14.60
4054;DHT22;2042;47.956;9.222;2022-10-16T02:36:59;10.60;14.50
4054;DHT22;2042;47.956;9.222;2022-10-16T02:39:27;10.60;14.50
4054;DHT22;2042;47.956;9.222;2022-10-16T02:41:53;10.60;14.50
4054;DHT22;2042;47.956;9.222;2022-10-16T02:44:19;10.60;14.50
4054;DHT22;2042;47.956;9.222;2022-10-16T02:46:44;10.60;14.50
4054;DHT22;2042;47.956;9.222;2022-10-16T02:49:10;10.60;14.50
4054;DHT22;2042;47.956;9.222;2022-10-16T02:51:36;10.60;14.60
4054;DHT22;2042;47.956;9.222;2022-10-16T02:54:02;10.60;14.80
4054;DHT22;2042;47.956;9.222;2022-10-16T02:56:28;10.60;14.70
4054;DHT22;2042;47.956;9.222;2022-10-16T02:58:55;10.60;14.70
4054;DHT22;2042;47.956;9.222;2022-10-16T03:01:21;10.60;14.80
4054;DHT22;2042;47.956;9.222;2022-10-16T03:03:47;10.60;14.80
4054;DHT22;2042;47.956;9.222;2022-10-16T03:06:12;10.60;14.80
4054;DHT22;2042;47.956;9.222;2022-10-16T03:08:38;10.60;14.80
4054;DHT22;2042;47.956;9.222;2022-10-16T03:11:04;10.60;14.80
4054;DHT22;2042;47.956;9.222;2022-10-16T03:13:29;10.50;14.50
4054;DHT22;2042;47.956;9.222;2022-10-16T03:15:55;10.50;14.10
4054;DHT22;2042;47.956;9.222;2022-10-16T03:18:21;10.40;14.20
4054;DHT22;2042;47.956;9.222;2022-10-16T03:20:46;10.40;14.30
4054;DHT22;2042;47.956;9.222;2022-10-16T03:23:12;10.40;14.60
4054;DHT22;2042;47.956;9.222;2022-10-16T03:25:37;10.40;14.80
4054;DHT22;2042;47.956;9.222;2022-10-16T03:28:03;10.40;14.80
4054;DHT22;2042;47.956;9.222;2022-10-16T03:30:29;10.40;14.90
4054;DHT22;2042;47.956;9.222;2022-10-16T03:32:55;10.40;15.10
4054;DHT22;2042;47.956;9.222;2022-10-16T03:35:22;10.50;15.20
4054;DHT22;2042;47.956;9.222;2022-10-16T03:37:48;10.50;15.30
4054;DHT22;2042;47.956;9.222;2022-10-16T03:40:14;10.50;15.30
4054;DHT22;2042;47.956;9.222;2022-10-16T03:42:41;10.50;15.30
4054;DHT22;2042;47.956;9.222;2022-10-16T03:45:07;10.50;15.40
4054;DHT22;2042;47.956;9.222;2022-10-16T03:47:33;10.50;15.40
4054;DHT22;2042;47.956;9.222;2022-10-16T03:49:59;10.50;15.40
4054;DHT22;2042;47.956;9.222;2022-10-16T03:52:26;10.50;15.60
4054;DHT22;2042;47.956;9.222;2022-10-16T03:54:51;10.60;15.70
4054;DHT22;2042;47.956;9.222;2022-10-16T03:57:17;10.60;15.70
4054;DHT22;2042;47.956;9.222;2022-10-16T03:59:43;10.50;15.40
4054;DHT22;2042;47.956;9.222;2022-10-16T04:02:09;10.50;15.10
4054;DHT22;2042;47.956;9.222;2022-10-16T04:04:34;10.40;14.90
4054;DHT22;2042;47.956;9.222;2022-10-16T04:07:00;10.40;14.60
4054;DHT22;2042;47.956;9.222;2022-10-16T04:09:26;10.30;14.30
4054;DHT22;2042;47.956;9.222;2022-10-16T04:11:52;10.20;14.20
4054;DHT22;2042;47.956;9.222;2022-10-16T04:14:17;10.20;14.30
4054;DHT22;2042;47.956;9.222;2022-10-16T04:16:43;10.10;13.90
4054;DHT22;2042;47.956;9.222;2022-10-16T04:19:10;10.00;13.70
4054;DHT22;2042;47.956;9.222;2022-10-16T04:21:36;10.00;13.70
4054;DHT22;2042;47.956;9.222;2022-10-16T04:24:02;9.90;14.30
4054;DHT22;2042;47.956;9.222;2022-10-16T04:26:27;9.80;14.20
4054;DHT22;2042;47.956;9.222;2022-10-16T04:28:53;9.80;14.30
4054;DHT22;2042;47.956;9.222;2022-10-16T04:31:19;9.80;14.60
4054;DHT22;2042;47.956;9.222;2022-10-16T04:33:46;9.80;14.90
4054;DHT22;2042;47.956;9.222;2022-10-16T04:36:11;9.80;15.00
4054;DHT22;2042;47.956;9.222;2022-10-16T04:38:37;9.80;15.10
4054;DHT22;2042;47.956;9.222;2022-10-16T04:41:05;9.80;15.10
4054;DHT22;2042;47.956;9.222;2022-10-16T04:43:31;9.80;15.20
4054;DHT22;2042;47.956;9.222;2022-10-16T04:45:57;9.80;15.40
4054;DHT22;2042;47.956;9.222;2022-10-16T04:48:22;9.90;15.60
4054;DHT22;2042;47.956;9.222;2022-10-16T04:50:48;9.90;16.20
4054;DHT22;2042;47.956;9.222;2022-10-16T04:53:14;9.90;15.90
4054;DHT22;2042;47.956;9.222;2022-10-16T04:55:41;9.90;16.00
4054;DHT22;2042;47.956;9.222;2022-10-16T04:58:06;10.00;15.40
4054;DHT22;2042;47.956;9.222;2022-10-16T05:00:32;10.00;15.40
4054;DHT22;2042;47.956;9.222;2022-10-16T05:02:58;10.00;15.30
4054;DHT22;2042;47.956;9.222;2022-10-16T05:05:26;10.00;15.20
4054;DHT22;2042;47.956;9.222;2022-10-16T05:07:52;10.00;15.30
4054;DHT22;2042;47.956;9.222;2022-10-16T05:10:18;10.00;15.30
4054;DHT22;2042;47.956;9.222;2022-10-16T05:12:44;10.00;15.40
4054;DHT22;2042;47.956;9.222;2022-10-16T05:15:09;10.00;15.40
4054;DHT22;2042;47.956;9.222;2022-10-16T05:17:35;10.00;15.50
4054;DHT22;2042;47.956;9.222;2022-10-16T05:20:01;10.00;15.50
4054;DHT22;2042;47.956;9.222;2022-10-16T05:22:28;10.00;15.50
4054;DHT22;2042;47.956;9.222;2022-10-16T05:24:54;10.00;15.60
4054;DHT22;2042;47.956;9.222;2022-10-16T05:27:20;10.10;15.60
4054;DHT22;2042;47.956;9.222;2022-10-16T05:29:46;10.10;15.50
4054;DHT22;2042;47.956;9.222;2022-10-16T05:32:13;10.00;15.10
4054;DHT22;2042;47.956;9.222;2022-10-16T05:34:39;9.90;15.60
4054;DHT22;2042;47.956;9.222;2022-10-16T05:37:04;9.90;15.70
4054;DHT22;2042;47.956;9.222;2022-10-16T05:39:30;9.90;16.00
4054;DHT22;2042;47.956;9.222;2022-10-16T05:41:56;9.90;16.20
4054;DHT22;2042;47.956;9.222;2022-10-16T05:44:21;10.00;15.70
4054;DHT22;2042;47.956;9.222;2022-10-16T05:46:47;10.00;15.80
4054;DHT22;2042;47.956;9.222;2022-10-16T05:49:13;10.00;15.90
4054;DHT22;2042;47.956;9.222;2022-10-16T05:51:38;10.00;16.00
4054;DHT22;2042;47.956;9.222;2022-10-16T05:54:04;10.10;16.10
4054;DHT22;2042;47.956;9.222;2022-10-16T05:56:30;10.10;16.10
4054;DHT22;2042;47.956;9.222;2022-10-16T05:58:56;10.10;16.10
4054;DHT22;2042;47.956;9.222;2022-10-16T06:01:21;10.10;16.20
4054;DHT22;2042;47.956;9.222;2022-10-16T06:03:52;10.20;16.40
4054;DHT22;2042;47.956;9.222;2022-10-16T06:06:23;10.20;16.50
4054;DHT22;2042;47.956;9.222;2022-10-16T06:08:49;10.20;17.10
4054;DHT22;2042;47.956;9.222;2022-10-16T06:11:24;10.30;16.80
4054;DHT22;2042;47.956;9.222;2022-10-16T06:13:51;10.40;16.90
4054;DHT22;2042;47.956;9.222;2022-10-16T06:16:17;10.50;17.00
4054;DHT22;2042;47.956;9.222;2022-10-16T06:18:43;10.60;17.00
4054;DHT22;2042;47.956;9.222;2022-10-16T06:21:11;10.70;17.10
4054;DHT22;2042;47.956;9.222;2022-10-16T06:23:37;10.70;17.10
4054;DHT22;2042;47.956;9.222;2022-10-16T06:26:07;10.70;17.00
4054;DHT22;2042;47.956;9.222;2022-10-16T06:28:34;10.80;17.00
4054;DHT22;2042;47.956;9.222;2022-10-16T06:31:00;10.80;17.10
4054;DHT22;2042;47.956;9.222;2022-10-16T06:33:26;10.90;17.20
4054;DHT22;2042;47.956;9.222;2022-10-16T06:35:52;11.00;17.30
4054;DHT22;2042;47.956;9.222;2022-10-16T06:38:18;11.10;17.30
4054;DHT22;2042;47.956;9.222;2022-10-16T06:40:43;11.10;17.30
4054;DHT22;2042;47.956;9.222;2022-10-16T06:43:09;11.20;17.40
4054;DHT22;2042;47.956;9.222;2022-10-16T06:45:34;11.30;17.50
4054;DHT22;2042;47.956;9.222;2022-10-16T06:48:00;11.50;17.70
4054;DHT22;2042;47.956;9.222;2022-10-16T06:50:26;11.60;33.20
4054;DHT22;2042;47.956;9.222;2022-10-16T06:52:52;11.70;24.10
4054;DHT22;2042;47.956;9.222;2022-10-16T06:55:17;11.90;17.90
4054;DHT22;2042;47.956;9.222;2022-10-16T06:57:46;12.00;18.00
4054;DHT22;2042;47.956;9.222;2022-10-16T07:00:12;12.10;17.60
4054;DHT22;2042;47.956;9.222;2022-10-16T07:02:38;12.20;17.50
4054;DHT22;2042;47.956;9.222;2022-10-16T07:05:04;12.30;16.30
4054;DHT22;2042;47.956;9.222;2022-10-16T07:07:29;12.50;17.10
4054;DHT22;2042;47.956;9.222;2022-10-16T07:09:55;12.80;16.40
4054;DHT22;2042;47.956;9.222;2022-10-16T07:12:21;13.10;15.60
4054;DHT22;2042;47.956;9.222;2022-10-16T07:14:46;13.40;14.00
4054;DHT22;2042;47.956;9.222;2022-10-16T07:17:12;13.60;11.20
4054;DHT22;2042;47.956;9.222;2022-10-16T07:19:38;13.80;7.80
4054;DHT22;2042;47.956;9.222;2022-10-16T07:22:04;14.00;5.10
4054;DHT22;2042;47.956;9.222;2022-10-16T07:24:30;14.30;29.50
4054;DHT22;2042;47.956;9.222;2022-10-16T07:26:55;14.70;3.80
4054;DHT22;2042;47.956;9.222;2022-10-16T07:29:21;14.90;1.00
4054;DHT22;2042;47.956;9.222;2022-10-16T07:31:48;15.00;1.00
4054;DHT22;2042;47.956;9.222;2022-10-16T07:34:16;15.10;1.00
4054;DHT22;2042;47.956;9.222;2022-10-16T07:36:42;15.30;1.00
4054;DHT22;2042;47.956;9.222;2022-10-16T07:39:08;15.70;1.00
4054;DHT22;2042;47.956;9.222;2022-10-16T07:41:33;16.50;1.00
4054;DHT22;2042;47.956;9.222;2022-10-16T07:44:02;17.20;1.00
4054;DHT22;2042;47.956;9.222;2022-10-16T07:46:29;17.40;1.00
4054;DHT22;2042;47.956;9.222;2022-10-16T07:48:55;17.50;1.00
4054;DHT22;2042;47.956;9.222;2022-10-16T07:51:23;17.50;1.00
4054;DHT22;2042;47.956;9.222;2022-10-16T07:53:49;17.80;1.00
4054;DHT22;2042;47.956;9.222;2022-10-16T07:56:16;18.10;1.00
4054;DHT22;2042;47.956;9.222;2022-10-16T07:58:42;18.20;1.00
4054;DHT22;2042;47.956;9.222;2022-10-16T08:01:11;18.20;1.00
4054;DHT22;2042;47.956;9.222;2022-10-16T08:03:37;18.30;1.00
4054;DHT22;2042;47.956;9.222;2022-10-16T08:06:03;18.50;1.00
4054;DHT22;2042;47.956;9.222;2022-10-16T08:08:30;18.70;1.00
4054;DHT22;2042;47.956;9.222;2022-10-16T08:10:56;18.80;1.00
4054;DHT22;2042;47.956;9.222;2022-10-16T08:13:21;18.70;1.00
4054;DHT22;2042;47.956;9.222;2022-10-16T08:15:47;18.60;1.00
4054;DHT22;2042;47.956;9.222;2022-10-16T08:18:14;18.50;1.00
4054;DHT22;2042;47.956;9.222;2022-10-16T08:20:41;18.40;1.00
4054;DHT22;2042;47.956;9.222;2022-10-16T08:23:09;18.30;1.00
4054;DHT22;2042;47.956;9.222;2022-10-16T08:25:36;18.20;1.00
4054;DHT22;2042;47.956;9.222;2022-10-16T08:28:06;18.00;1.00
4054;DHT22;2042;47.956;9.222;2022-10-16T08:30:33;17.90;1.00
4054;DHT22;2042;47.956;9.222;2022-10-16T08:32:59;17.90;1.00
4054;DHT22;2042;47.956;9.222;2022-10-16T08:35:25;17.80;1.00
4054;DHT22;2042;47.956;9.222;2022-10-16T08:37:50;17.80;1.00
4054;DHT22;2042;47.956;9.222;2022-10-16T08:40:28;17.90;1.00
4054;DHT22;2042;47.956;9.222;2022-10-16T08:43:04;17.90;1.00
4054;DHT22;2042;47.956;9.222;2022-10-16T08:50:38;18.20;1.00
4054;DHT22;2042;47.956;9.222;2022-10-16T08:53:05;18.30;1.00
4054;DHT22;2042;47.956;9.222;2022-10-16T08:55:38;18.60;1.00
4054;DHT22;2042;47.956;9.222;2022-10-16T08:58:13;18.90;1.00
4054;DHT22;2042;47.956;9.222;2022-10-16T09:00:39;19.40;1.00
4054;DHT22;2042;47.956;9.222;2022-10-16T09:03:17;20.00;1.00
4054;DHT22;2042;47.956;9.222;2022-10-16T09:10:54;22.50;1.00
4054;DHT22;2042;47.956;9.222;2022-10-16T09:13:33;23.00;1.00
4054;DHT22;2042;47.956;9.222;2022-10-16T09:16:14;23.20;1.00
4054;DHT22;2042;47.956;9.222;2022-10-16T09:18:56;23.20;1.00
4054;DHT22;2042;47.956;9.222;2022-10-16T09:21:30;22.90;1.00
4054;DHT22;2042;47.956;9.222;2022-10-16T09:24:20;22.40;1.00
4054;DHT22;2042;47.956;9.222;2022-10-16T09:26:47;21.90;1.00
4054;DHT22;2042;47.956;9.222;2022-10-16T09:29:17;21.60;1.00
4054;DHT22;2042;47.956;9.222;2022-10-16T09:31:45;21.50;1.00
4054;DHT22;2042;47.956;9.222;2022-10-16T09:34:29;21.50;1.00
4054;DHT22;2042;47.956;9.222;2022-10-16T09:36:57;21.70;1.00
4054;DHT22;2042;47.956;9.222;2022-10-16T09:39:23;22.00;1.00
4054;DHT22;2042;47.956;9.222;2022-10-16T09:41:50;22.30;1.00
4054;DHT22;2042;47.956;9.222;2022-10-16T09:44:26;22.80;1.00
4054;DHT22;2042;47.956;9.222;2022-10-16T09:47:28;23.20;1.00
4054;DHT22;2042;47.956;9.222;2022-10-16T09:50:15;24.50;1.00
4054;DHT22;2042;47.956;9.222;2022-10-16T09:52:45;25.40;1.00
4054;DHT22;2042;47.956;9.222;2022-10-16T09:55:16;25.70;1.00
4054;DHT22;2042;47.956;9.222;2022-10-16T09:57:53;25.90;1.00
4054;DHT22;2042;47.956;9.222;2022-10-16T10:00:20;26.80;1.00
4054;DHT22;2042;47.956;9.222;2022-10-16T10:02:46;28.30;1.00
4054;DHT22;2042;47.956;9.222;2022-10-16T10:08:12;29.00;1.00
4054;DHT22;2042;47.956;9.222;2022-10-16T10:10:42;28.10;1.00
4054;DHT22;2042;47.956;9.222;2022-10-16T10:13:20;27.10;1.00
4054;DHT22;2042;47.956;9.222;2022-10-16T10:15:46;26.20;1.00
4054;DHT22;2042;47.956;9.222;2022-10-16T10:18:21;25.80;1.00
4054;DHT22;2042;47.956;9.222;2022-10-16T10:20:59;25.70;1.00
4054;DHT22;2042;47.956;9.222;2022-10-16T10:23:27;25.70;1.00
4054;DHT22;2042;47.956;9.222;2022-10-16T10:31:33;24.70;1.00
4054;DHT22;2042;47.956;9.222;2022-10-16T10:36:39;24.90;1.00
4054;DHT22;2042;47.956;9.222;2022-10-16T10:50:26;28.60;1.00
4054;DHT22;2042;47.956;9.222;2022-10-16T10:56:06;28.90;1.00
4054;DHT22;2042;47.956;9.222;2022-10-16T10:58:59;28.90;1.00
4054;DHT22;2042;47.956;9.222;2022-10-16T11:09:51;28.30;1.00
4054;DHT22;2042;47.956;9.222;2022-10-16T11:15:11;27.90;1.00
4054;DHT22;2042;47.956;9.222;2022-10-16T11:17:50;27.60;1.00
4054;DHT22;2042;47.956;9.222;2022-10-16T11:20:24;27.30;1.00
4054;DHT22;2042;47.956;9.222;2022-10-16T11:23:02;29.00;1.00
4054;DHT22;2042;47.956;9.222;2022-10-16T11:25:33;31.70;1.00
4054;DHT22;2042;47.956;9.222;2022-10-16T11:30:29;33.50;1.00
4054;DHT22;2042;47.956;9.222;2022-10-16T11:35:51;34.50;1.00
4054;DHT22;2042;47.956;9.222;2022-10-16T11:44:02;33.30;1.00
4054;DHT22;2042;47.956;9.222;2022-10-16T11:46:31;32.20;1.00
4054;DHT22;2042;47.956;9.222;2022-10-16T11:51:43;30.60;1.00
4054;DHT22;2042;47.956;9.222;2022-10-16T11:54:22;29.90;1.00
4054;DHT22;2042;47.956;9.222;2022-10-16T11:56:56;29.50;1.00
4054;DHT22;2042;47.956;9.222;2022-10-16T12:01:56;30.00;1.00
4054;DHT22;2042;47.956;9.222;2022-10-16T12:04:25;31.10;1.00
4054;DHT22;2042;47.956;9.222;2022-10-16T12:07:19;31.80;1.00
4054;DHT22;2042;47.956;9.222;2022-10-16T12:09:47;31.80;1.00
4054;DHT22;2042;47.956;9.222;2022-10-16T12:12:26;31.60;1.00
4054;DHT22;2042;47.956;9.222;2022-10-16T12:15:21;31.20;1.00
4054;DHT22;2042;47.956;9.222;2022-10-16T12:17:47;31.00;1.00
4054;DHT22;2042;47.956;9.222;2022-10-16T12:25:31;34.30;1.00
4054;DHT22;2042;47.956;9.222;2022-10-16T12:30:41;35.90;1.00
4054;DHT22;2042;47.956;9.222;2022-10-16T12:33:29;36.30;1.00
4054;DHT22;2042;47.956;9.222;2022-10-16T12:35:56;36.40;1.00
4054;DHT22;2042;47.956;9.222;2022-10-16T12:38:30;36.20;1.00
4054;DHT22;2042;47.956;9.222;2022-10-16T12:43:39;35.70;1.00
4054;DHT22;2042;47.956;9.222;2022-10-16T12:46:23;35.50;1.00
4054;DHT22;2042;47.956;9.222;2022-10-16T12:48:50;35.20;1.00
4054;DHT22;2042;47.956;9.222;2022-10-16T12:53:58;34.50;1.00
4054;DHT22;2042;47.956;9.222;2022-10-16T13:10:52;31.00;1.00
4054;DHT22;2042;47.956;9.222;2022-10-16T13:13:39;30.80;1.00
4054;DHT22;2042;47.956;9.222;2022-10-16T13:16:15;31.20;1.00
4054;DHT22;2042;47.956;9.222;2022-10-16T13:24:28;30.80;1.00
4054;DHT22;2042;47.956;9.222;2022-10-16T13:27:09;30.20;1.00
4054;DHT22;2042;47.956;9.222;2022-10-16T13:29:38;29.20;1.00
4054;DHT22;2042;47.956;9.222;2022-10-16T13:32:10;28.00;1.00
4054;DHT22;2042;47.956;9.222;2022-10-16T13:34:47;27.20;1.00
4054;DHT22;2042;47.956;9.222;2022-10-16T13:37:24;26.60;1.00
4054;DHT22;2042;47.956;9.222;2022-10-16T13:39:50;26.00;1.00
4054;DHT22;2042;47.956;9.222;2022-10-16T13:42:26;25.50;1.00
4054;DHT22;2042;47.956;9.222;2022-10-16T13:44:54;25.20;1.00
4054;DHT22;2042;47.956;9.222;2022-10-16T13:47:23;24.90;1.00
4054;DHT22;2042;47.956;9.222;2022-10-16T13:52:31;23.80;1.00
4054;DHT22;2042;47.956;9.222;2022-10-16T13:54:56;23.40;1.00
4054;DHT22;2042;47.956;9.222;2022-10-16T13:57:24;23.20;1.00
4054;DHT22;2042;47.956;9.222;2022-10-16T13:59:50;23.20;1.00
4054;DHT22;2042;47.956;9.222;2022-10-16T14:02:35;23.30;1.00
4054;DHT22;2042;47.956;9.222;2022-10-16T14:05:04;23.40;1.00
4054;DHT22;2042;47.956;9.222;2022-10-16T14:07:35;23.40;1.00
4054;DHT22;2042;47.956;9.222;2022-10-16T14:10:04;23.40;1.00
4054;DHT22;2042;47.956;9.222;2022-10-16T14:12:30;23.40;1.00
4054;DHT22;2042;47.956;9.222;2022-10-16T14:14:57;23.40;1.00
4054;DHT22;2042;47.956;9.222;2022-10-16T14:17:35;23.30;1.00
4054;DHT22;2042;47.956;9.222;2022-10-16T14:20:05;22.90;1.00
4054;DHT22;2042;47.956;9.222;2022-10-16T14:22:35;22.70;1.00
4054;DHT22;2042;47.956;9.222;2022-10-16T14:27:42;22.20;1.00
4054;DHT22;2042;47.956;9.222;2022-10-16T14:32:33;22.00;1.00
4054;DHT22;2042;47.956;9.222;2022-10-16T14:34:59;21.90;1.00
4054;DHT22;2042;47.956;9.222;2022-10-16T14:37:27;21.80;1.00
4054;DHT22;2042;47.956;9.222;2022-10-16T14:39:54;21.70;1.00
4054;DHT22;2042;47.956;9.222;2022-10-16T14:42:23;21.60;1.00
4054;DHT22;2042;47.956;9.222;2022-10-16T14:44:53;21.50;1.00
4054;DHT22;2042;47.956;9.222;2022-10-16T14:47:24;21.40;1.00
4054;DHT22;2042;47.956;9.222;2022-10-16T14:49:52;21.30;1.00
4054;DHT22;2042;47.956;9.222;2022-10-16T14:52:20;21.30;1.00
4054;DHT22;2042;47.956;9.222;2022-10-16T14:54:49;21.20;1.00
4054;DHT22;2042;47.956;9.222;2022-10-16T14:57:23;21.10;1.00
4054;DHT22;2042;47.956;9.222;2022-10-16T14:59:49;21.10;1.00
4054;DHT22;2042;47.956;9.222;2022-10-16T15:02:27;21.00;1.00
4054;DHT22;2042;47.956;9.222;2022-10-16T15:04:53;20.90;1.00
4054;DHT22;2042;47.956;9.222;2022-10-16T15:07:19;20.80;1.00
4054;DHT22;2042;47.956;9.222;2022-10-16T15:09:45;20.70;1.00
4054;DHT22;2042;47.956;9.222;2022-10-16T15:12:11;20.60;1.00
4054;DHT22;2042;47.956;9.222;2022-10-16T15:14:37;20.50;1.00
4054;DHT22;2042;47.956;9.222;2022-10-16T15:29:16;19.70;1.00
4054;DHT22;2042;47.956;9.222;2022-10-16T15:31:41;19.60;1.00
4054;DHT22;2042;47.956;9.222;2022-10-16T15:34:12;19.40;1.00
4054;DHT22;2042;47.956;9.222;2022-10-16T15:36:39;19.20;1.00
4054;DHT22;2042;47.956;9.222;2022-10-16T15:39:15;19.10;1.00
4054;DHT22;2042;47.956;9.222;2022-10-16T15:41:41;18.90;1.00
4054;DHT22;2042;47.956;9.222;2022-10-16T15:44:07;18.80;1.00
4054;DHT22;2042;47.956;9.222;2022-10-16T15:46:33;18.70;1.00
4054;DHT22;2042;47.956;9.222;2022-10-16T15:49:00;18.50;1.00
4054;DHT22;2042;47.956;9.222;2022-10-16T15:51:27;18.40;1.00
4054;DHT22;2042;47.956;9.222;2022-10-16T15:53:58;18.20;1.00
4054;DHT22;2042;47.956;9.222;2022-10-16T15:56:24;18.00;1.00
4054;DHT22;2042;47.956;9.222;2022-10-16T15:58:51;17.80;1.00
4054;DHT22;2042;47.956;9.222;2022-10-16T16:01:18;17.60;1.00
4054;DHT22;2042;47.956;9.222;2022-10-16T16:03:43;17.50;1.00
4054;DHT22;2042;47.956;9.222;2022-10-16T16:06:11;17.40;1.00
4054;DHT22;2042;47.956;9.222;2022-10-16T16:08:38;17.20;1.00
4054;DHT22;2042;47.956;9.222;2022-10-16T16:13:35;16.60;3.00
4054;DHT22;2042;47.956;9.222;2022-10-16T16:16:09;16.70;1.00
4054;DHT22;2042;47.956;9.222;2022-10-16T16:33:25;15.40;1.00
4054;DHT22;2042;47.956;9.222;2022-10-16T16:35:55;15.30;1.00
4054;DHT22;2042;47.956;9.222;2022-10-16T16:38:21;15.10;1.00
4054;DHT22;2042;47.956;9.222;2022-10-16T16:40:47;14.90;1.00
4054;DHT22;2042;47.956;9.222;2022-10-16T16:43:12;14.70;1.00
4054;DHT22;2042;47.956;9.222;2022-10-16T16:45:38;14.50;1.00
4054;DHT22;2042;47.956;9.222;2022-10-16T16:48:04;14.30;1.00
4054;DHT22;2042;47.956;9.222;2022-10-16T16:50:36;14.30;1.00
4054;DHT22;2042;47.956;9.222;2022-10-16T16:53:02;14.10;1.00
4054;DHT22;2042;47.956;9.222;2022-10-16T16:55:27;14.00;1.00
4054;DHT22;2042;47.956;9.222;2022-10-16T16:57:54;13.80;1.00
4054;DHT22;2042;47.956;9.222;2022-10-16T17:00:20;13.80;1.00
4054;DHT22;2042;47.956;9.222;2022-10-16T17:02:49;13.60;1.00
4054;DHT22;2042;47.956;9.222;2022-10-16T17:22:19;13.00;1.00
4054;DHT22;2042;47.956;9.222;2022-10-16T17:24:48;13.00;1.00
4054;DHT22;2042;47.956;9.222;2022-10-16T17:27:15;12.70;1.00
4054;DHT22;2042;47.956;9.222;2022-10-16T17:29:41;12.50;1.00
4054;DHT22;2042;47.956;9.222;2022-10-16T17:32:07;12.40;1.00
4054;DHT22;2042;47.956;9.222;2022-10-16T17:34:32;12.30;1.00
4054;DHT22;2042;47.956;9.222;2022-10-16T17:37:00;12.30;1.00
4054;DHT22;2042;47.956;9.222;2022-10-16T17:39:25;12.20;1.00
4054;DHT22;2042;47.956;9.222;2022-10-16T17:41:51;12.10;1.00
4054;DHT22;2042;47.956;9.222;2022-10-16T17:44:18;12.10;1.00
4054;DHT22;2042;47.956;9.222;2022-10-16T17:46:52;12.00;1.00
4054;DHT22;2042;47.956;9.222;2022-10-16T17:49:18;11.90;1.00
4054;DHT22;2042;47.956;9.222;2022-10-16T17:51:44;11.90;1.00
4054;DHT22;2042;47.956;9.222;2022-10-16T17:54:11;11.80;1.00
4054;DHT22;2042;47.956;9.222;2022-10-16T18:01:39;11.70;1.00
4054;DHT22;2042;47.956;9.222;2022-10-16T18:04:11;11.50;1.00
4054;DHT22;2042;47.956;9.222;2022-10-16T18:06:38;11.40;1.00
4054;DHT22;2042;47.956;9.222;2022-10-16T18:09:05;11.30;1.00
4054;DHT22;2042;47.956;9.222;2022-10-16T18:11:32;11.30;1.00
4054;DHT22;2042;47.956;9.222;2022-10-16T18:13:59;11.30;1.00
4054;DHT22;2042;47.956;9.222;2022-10-16T18:16:26;11.20;1.00
4054;DHT22;2042;47.956;9.222;2022-10-16T18:18:53;11.20;1.00
4054;DHT22;2042;47.956;9.222;2022-10-16T18:21:19;11.10;1.00
4054;DHT22;2042;47.956;9.222;2022-10-16T18:23:46;11.10;1.00
4054;DHT22;2042;47.956;9.222;2022-10-16T18:26:13;11.10;1.10
4054;DHT22;2042;47.956;9.222;2022-10-16T18:28:39;11.10;1.70
4054;DHT22;2042;47.956;9.222;2022-10-16T18:31:07;11.00;1.80
4054;DHT22;2042;47.956;9.222;2022-10-16T18:33:36;10.90;1.90
4054;DHT22;2042;47.956;9.222;2022-10-16T18:36:05;10.90;1.80
4054;DHT22;2042;47.956;9.222;2022-10-16T18:38:32;10.80;1.80
4054;DHT22;2042;47.956;9.222;2022-10-16T18:40:58;10.70;1.80
4054;DHT22;2042;47.956;9.222;2022-10-16T18:43:26;10.70;2.70
4054;DHT22;2042;47.956;9.222;2022-10-16T18:46:03;10.60;1.80
4054;DHT22;2042;47.956;9.222;2022-10-16T18:48:30;10.50;2.20
4054;DHT22;2042;47.956;9.222;2022-10-16T18:51:21;10.50;2.30
4054;DHT22;2042;47.956;9.222;2022-10-16T18:53:51;10.40;2.60
4054;DHT22;2042;47.956;9.222;2022-10-16T18:56:18;10.40;2.70
4054;DHT22;2042;47.956;9.222;2022-10-16T19:01:18;10.30;2.60
4054;DHT22;2042;47.956;9.222;2022-10-16T19:03:55;10.20;2.70
4054;DHT22;2042;47.956;9.222;2022-10-16T19:06:22;10.20;2.00
4054;DHT22;2042;47.956;9.222;2022-10-16T19:08:48;10.10;2.00
4054;DHT22;2042;47.956;9.222;2022-10-16T19:11:16;10.10;2.00
4054;DHT22;2042;47.956;9.222;2022-10-16T19:13:43;10.00;2.00